Time;durP1;ratioP1;P1;durP2;ratioP2;P2;SDS_P1;SDS_P2;PMS_P1;PMS_P2;Temp;Humidity;BMP_temperature;BMP_pressure;BME280_temperature;BME280_humidity;BME280_pressure;Samples;Min_cycle;Max_cycle;Signal;HPM_P1;HPM_P2
2023/09/13 00:00:47;;;;;;;7.28;6.53;;;;;;;22.67;55.64;96445.56;6277957;22;20028;-77
2023/09/13 00:03:15;;;;;;;7.47;5.05;;;;;;;22.75;55.49;96445.84;6277539;22;20031;-77
2023/09/13 00:05:43;;;;;;;10.25;6.32;;;;;;;22.80;55.02;96453.03;6278767;22;20020;-78
2023/09/13 00:08:12;;;;;;;6.93;5.78;;;;;;;22.86;55.14;96459.97;6277235;22;20077;-78
2023/09/13 00:10:40;;;;;;;7.95;5.35;;;;;;;22.93;54.54;96452.50;6277254;22;20020;-78
2023/09/13 00:13:08;;;;;;;6.47;5.63;;;;;;;22.94;54.54;96464.78;6277615;22;20055;-77
2023/09/13 00:15:36;;;;;;;7.00;5.80;;;;;;;22.97;54.26;96466.88;6277894;22;20046;-77
2023/09/13 00:18:04;;;;;;;6.88;5.97;;;;;;;22.99;54.47;96471.94;6277779;22;20026;-78
2023/09/13 00:20:31;;;;;;;8.77;5.18;;;;;;;23.01;54.47;96475.97;6277433;22;20020;-77
2023/09/13 00:22:59;;;;;;;8.30;5.60;;;;;;;23.03;54.07;96471.19;6277612;22;20024;-77
2023/09/13 00:25:28;;;;;;;8.15;5.90;;;;;;;23.03;54.08;96484.50;6277343;22;20049;-77
2023/09/13 00:27:56;;;;;;;8.82;5.80;;;;;;;23.02;54.12;96466.13;6276514;22;20094;-78
2023/09/13 00:30:23;;;;;;;7.43;5.97;;;;;;;23.06;54.07;96477.03;6291532;22;20035;-78
2023/09/13 00:32:51;;;;;;;10.18;5.63;;;;;;;23.07;54.35;96483.94;6298418;22;20099;-78
2023/09/13 00:35:18;;;;;;;7.15;5.18;;;;;;;23.11;54.28;96474.38;6298192;22;20373;-78
2023/09/13 00:37:46;;;;;;;7.28;5.45;;;;;;;23.14;53.83;96479.97;6297609;22;20015;-78
2023/09/13 00:40:14;;;;;;;10.07;5.90;;;;;;;23.18;53.80;96480.25;6284388;22;20020;-78
2023/09/13 00:42:43;;;;;;;6.70;5.88;;;;;;;23.20;53.93;96488.78;6278766;22;20098;-78
2023/09/13 00:45:11;;;;;;;8.38;6.07;;;;;;;23.22;53.89;96486.63;6277891;22;20023;-78
2023/09/13 00:47:39;;;;;;;8.50;5.95;;;;;;;23.27;53.80;96483.97;6277435;22;20023;-77
2023/09/13 00:50:10;;;;;;;7.45;5.75;;;;;;;23.32;53.42;96476.00;6280077;22;20349;-79
2023/09/13 00:52:40;;;;;;;7.93;5.88;;;;;;;23.34;53.58;96473.06;6280713;22;20055;-77
2023/09/13 00:55:09;;;;;;;10.45;6.00;;;;;;;23.33;53.64;96472.28;6280195;22;20019;-78
2023/09/13 00:57:37;;;;;;;7.90;6.60;;;;;;;23.30;53.69;96472.78;6277491;22;20082;-78
2023/09/13 01:00:10;;;;;;;6.97;6.15;;;;;;;23.27;53.86;96468.03;6275640;22;20020;-78
2023/09/13 01:02:39;;;;;;;8.13;5.80;;;;;;;23.26;53.56;96470.94;6277512;22;20020;-77
2023/09/13 01:05:08;;;;;;;9.20;5.95;;;;;;;23.24;53.63;96469.34;6277763;22;20020;-77
2023/09/13 01:07:36;;;;;;;6.38;5.63;;;;;;;23.22;53.98;96465.34;6289290;22;20511;-77
2023/09/13 01:10:05;;;;;;;6.28;5.47;;;;;;;23.23;54.10;96466.94;6279175;22;20405;-77
2023/09/13 01:12:33;;;;;;;6.38;5.78;;;;;;;23.23;53.80;96466.94;6276964;22;20050;-77
2023/09/13 01:15:01;;;;;;;8.88;6.15;;;;;;;23.19;53.96;96460.56;6277425;22;20031;-77
2023/09/13 01:17:37;;;;;;;7.50;5.82;;;;;;;23.18;54.51;96465.09;6277266;22;20036;-77
2023/09/13 01:20:13;;;;;;;6.97;6.15;;;;;;;23.14;55.05;96447.25;6277241;22;20024;-77
2023/09/13 01:23:20;;;;;;;7.32;6.28;;;;;;;23.11;55.14;96442.44;6277080;22;20024;-77
2023/09/13 01:26:17;;;;;;;8.10;6.45;;;;;;;23.04;55.61;96442.72;6272659;22;20023;-77
2023/09/13 01:28:47;;;;;;;8.25;5.57;;;;;;;23.03;56.67;96457.88;6277600;22;20020;-78
2023/09/13 01:31:18;;;;;;;5.78;5.28;;;;;;;23.03;56.55;96452.56;6277240;22;20107;-77
2023/09/13 01:33:45;;;;;;;7.32;6.47;;;;;;;23.00;56.83;96446.97;6275794;22;20020;-78
2023/09/13 01:36:14;;;;;;;8.30;6.68;;;;;;;22.95;57.10;96439.75;6276605;22;20034;-78
2023/09/13 01:38:41;;;;;;;9.30;6.22;;;;;;;22.93;57.63;96431.25;6276621;22;20098;-78
2023/09/13 01:41:15;;;;;;;8.18;6.00;;;;;;;22.92;58.15;96432.31;6278472;22;20078;-77
2023/09/13 01:43:44;;;;;;;7.80;5.90;;;;;;;22.92;57.99;96439.50;6279977;22;20020;-78
2023/09/13 01:46:14;;;;;;;8.70;6.88;;;;;;;22.93;57.61;96436.56;6280486;22;20015;-77
2023/09/13 01:48:42;;;;;;;7.28;6.28;;;;;;;22.95;57.36;96439.75;6280349;22;20019;-78
2023/09/13 01:51:10;;;;;;;8.82;7.05;;;;;;;22.94;57.69;96446.16;6280121;22;20098;-77
2023/09/13 01:53:44;;;;;;;7.43;5.88;;;;;;;22.93;57.91;96452.50;6281410;22;20031;-77
2023/09/13 01:56:13;;;;;;;10.98;7.03;;;;;;;22.93;58.00;96457.03;6280987;22;20461;-78
2023/09/13 01:58:40;;;;;;;7.72;6.93;;;;;;;22.93;57.91;96463.16;6280908;22;20046;-78
2023/09/13 02:01:08;;;;;;;7.32;6.55;;;;;;;22.96;57.81;96453.88;6280666;22;20353;-77
2023/09/13 02:03:37;;;;;;;7.55;6.65;;;;;;;22.95;57.56;96455.72;6280097;22;20353;-78
2023/09/13 02:06:05;;;;;;;8.18;6.50;;;;;;;22.94;58.25;96450.69;6280113;22;20019;-78
2023/09/13 02:08:32;;;;;;;9.43;6.43;;;;;;;22.89;58.51;96456.75;6280093;22;20468;-77
2023/09/13 02:11:00;;;;;;;10.35;7.55;;;;;;;22.83;58.29;96452.53;6277479;22;20051;-77
2023/09/13 02:13:28;;;;;;;10.07;7.00;;;;;;;22.76;58.78;96434.16;6275963;22;20043;-77
2023/09/13 02:15:55;;;;;;;11.00;7.57;;;;;;;22.68;58.67;96428.56;6275715;22;20048;-77
2023/09/13 02:18:23;;;;;;;9.88;6.93;;;;;;;22.60;59.25;96428.00;6276694;22;20020;-78
2023/09/13 02:20:52;;;;;;;10.02;6.45;;;;;;;22.54;59.69;96434.38;6275922;22;20026;-78
2023/09/13 02:23:20;;;;;;;9.43;6.53;;;;;;;22.52;59.78;96431.19;6275822;22;20019;-77
2023/09/13 02:25:48;;;;;;;8.15;6.53;;;;;;;22.54;59.73;96453.00;6276708;22;20066;-77
2023/09/13 02:28:17;;;;;;;8.88;7.18;;;;;;;22.53;59.98;96456.69;6278560;22;20050;-77
2023/09/13 02:30:46;;;;;;;8.98;7.07;;;;;;;22.56;60.10;96463.34;6278474;22;20107;-77
2023/09/13 02:33:14;;;;;;;7.65;6.18;;;;;;;22.59;60.14;96463.63;6279993;22;20023;-77
2023/09/13 02:35:42;;;;;;;7.15;6.38;;;;;;;22.65;59.83;96474.28;6279339;22;20024;-77
2023/09/13 02:38:11;;;;;;;12.15;7.18;;;;;;;22.68;59.80;96471.09;6279787;22;20016;-78
2023/09/13 02:40:39;;;;;;;7.60;6.15;;;;;;;22.70;59.91;96474.31;6279176;22;20015;-78
2023/09/13 02:43:06;;;;;;;7.38;6.60;;;;;;;22.71;59.63;96468.69;6277247;22;20106;-77
2023/09/13 02:45:34;;;;;;;8.05;6.78;;;;;;;22.64;60.17;96470.81;6278381;22;20023;-78
2023/09/13 02:48:01;;;;;;;6.93;6.20;;;;;;;22.60;60.15;96470.53;6278017;22;20016;-78
2023/09/13 02:50:29;;;;;;;7.32;6.63;;;;;;;22.62;60.24;96471.06;6278081;22;20356;-77
2023/09/13 02:52:57;;;;;;;7.05;6.35;;;;;;;22.65;60.24;96471.59;6278656;22;20024;-77
2023/09/13 02:55:26;;;;;;;8.50;6.13;;;;;;;22.63;59.81;96485.19;6278480;22;20051;-78
2023/09/13 02:57:54;;;;;;;7.38;5.97;;;;;;;22.63;59.89;96490.50;6277973;22;20024;-77
2023/09/13 03:00:22;;;;;;;7.50;6.70;;;;;;;22.59;60.09;96486.75;6278393;22;20020;-78
2023/09/13 03:02:49;;;;;;;8.10;5.85;;;;;;;22.57;59.86;96491.53;6277107;22;20421;-77
2023/09/13 03:05:17;;;;;;;8.30;6.25;;;;;;;22.53;60.27;96496.56;6278026;22;20042;-77
2023/09/13 03:07:45;;;;;;;6.18;5.55;;;;;;;22.53;60.19;96499.22;6278202;22;20028;-78
2023/09/13 03:10:12;;;;;;;6.35;5.75;;;;;;;22.51;60.02;96498.69;6278055;22;20016;-77
2023/09/13 03:12:41;;;;;;;7.38;6.00;;;;;;;22.50;60.83;96501.59;6278271;22;20024;-78
2023/09/13 03:15:10;;;;;;;8.80;5.80;;;;;;;22.45;60.55;96497.06;6278318;22;20074;-77
2023/09/13 03:17:37;;;;;;;6.57;5.97;;;;;;;22.40;60.57;96492.53;6278347;22;20019;-77
2023/09/13 03:20:09;;;;;;;10.02;5.72;;;;;;;22.38;60.40;96488.53;6276866;22;20091;-77
2023/09/13 03:22:36;;;;;;;8.43;5.63;;;;;;;22.38;60.55;96497.31;6282072;22;20023;-78
2023/09/13 03:25:05;;;;;;;6.70;5.90;;;;;;;22.38;60.64;96494.66;6284034;22;20024;-77
2023/09/13 03:27:33;;;;;;;6.75;5.80;;;;;;;22.37;60.58;96482.44;6277641;22;20077;-77
2023/09/13 03:30:02;;;;;;;5.93;5.28;;;;;;;22.38;60.38;96484.00;6277893;22;20363;-77
2023/09/13 03:32:30;;;;;;;6.05;4.72;;;;;;;22.42;60.57;96484.31;6280483;22;20058;-78
2023/09/13 03:34:57;;;;;;;6.60;5.13;;;;;;;22.41;60.06;96488.00;6300545;22;20365;-77
2023/09/13 03:37:25;;;;;;;9.35;6.05;;;;;;;22.40;60.29;96497.06;6295141;22;20019;-77
2023/09/13 03:39:53;;;;;;;5.50;5.00;;;;;;;22.41;60.50;96498.63;6278962;22;20066;-77
2023/09/13 03:42:20;;;;;;;6.18;5.20;;;;;;;22.40;60.44;96494.41;6277794;22;20047;-78
2023/09/13 03:44:48;;;;;;;5.38;4.85;;;;;;;22.35;60.49;96503.16;6277832;22;20349;-78
2023/09/13 03:47:17;;;;;;;6.43;4.80;;;;;;;22.31;60.61;96499.41;6278386;22;20032;-78
2023/09/13 03:49:44;;;;;;;8.85;4.93;;;;;;;22.30;60.56;96502.31;6275007;22;20110;-77
2023/09/13 03:52:12;;;;;;;6.20;4.80;;;;;;;22.30;61.03;96507.63;6276104;22;20019;-77
2023/09/13 03:54:40;;;;;;;6.00;4.57;;;;;;;22.30;60.33;96512.94;6276142;22;20026;-77
2023/09/13 03:57:07;;;;;;;4.70;4.28;;;;;;;22.29;60.14;96514.81;6276360;22;20401;-77
2023/09/13 03:59:35;;;;;;;6.60;4.15;;;;;;;22.25;59.80;96515.59;6275924;22;20542;-77
2023/09/13 04:02:03;;;;;;;6.30;4.38;;;;;;;22.25;60.30;96515.59;6275798;22;20024;-78
2023/09/13 04:04:32;;;;;;;11.23;5.38;;;;;;;22.25;59.85;96516.38;6276074;22;20219;-77
2023/09/13 04:06:59;;;;;;;8.63;5.60;;;;;;;22.28;59.84;96517.72;6276662;22;20023;-78
2023/09/13 04:09:27;;;;;;;5.68;4.13;;;;;;;22.30;59.72;96520.91;6275938;22;20353;-77
2023/09/13 04:11:55;;;;;;;4.22;3.40;;;;;;;22.31;59.14;96518.00;6276087;22;20019;-77
2023/09/13 04:14:22;;;;;;;3.65;3.35;;;;;;;22.31;58.72;96530.50;6275996;22;20073;-77
2023/09/13 04:16:50;;;;;;;4.38;3.97;;;;;;;22.30;59.30;96534.19;6276351;22;20062;-78
2023/09/13 04:19:18;;;;;;;5.45;3.92;;;;;;;22.28;59.38;96525.69;6275830;22;20024;-78
2023/09/13 04:21:47;;;;;;;5.57;3.42;;;;;;;22.28;59.38;96526.50;6276146;22;20094;-77
2023/09/13 04:24:14;;;;;;;4.82;3.53;;;;;;;22.29;59.17;96527.28;6275764;22;20019;-77
2023/09/13 04:26:42;;;;;;;4.05;3.65;;;;;;;22.27;59.43;96540.03;6276121;22;20098;-77
2023/09/13 04:29:09;;;;;;;5.82;4.00;;;;;;;22.23;59.51;96538.94;6275861;22;20016;-77
2023/09/13 04:31:37;;;;;;;5.38;3.92;;;;;;;22.17;59.92;96538.06;6276351;22;20054;-77
2023/09/13 04:34:05;;;;;;;8.32;4.28;;;;;;;22.14;59.67;96549.22;6275555;22;20030;-77
2023/09/13 04:36:33;;;;;;;5.10;4.60;;;;;;;22.11;60.00;96550.56;6276045;22;20472;-77
2023/09/13 04:39:02;;;;;;;4.90;4.45;;;;;;;22.05;60.64;96556.09;6275874;22;20024;-77
2023/09/13 04:41:29;;;;;;;7.25;4.03;;;;;;;22.04;60.66;96547.31;6276151;22;20081;-77
2023/09/13 04:43:57;;;;;;;7.75;4.35;;;;;;;22.03;61.12;96556.34;6275866;22;20305;-77
2023/09/13 04:46:27;;;;;;;6.35;4.60;;;;;;;22.02;60.80;96547.56;6276722;22;20031;-77
2023/09/13 04:48:55;;;;;;;5.80;4.13;;;;;;;22.02;61.00;96554.75;6279016;22;20047;-79
2023/09/13 04:51:24;;;;;;;5.53;4.85;;;;;;;22.01;61.26;96553.13;6276012;22;20023;-77
2023/09/13 04:53:51;;;;;;;5.07;4.15;;;;;;;22.02;61.39;96549.44;6275875;22;20047;-77
2023/09/13 04:56:20;;;;;;;5.13;4.53;;;;;;;22.01;61.44;96547.81;6276485;22;20051;-77
2023/09/13 04:58:48;;;;;;;7.80;5.07;;;;;;;22.03;61.14;96537.75;6276258;22;20024;-77
2023/09/13 05:01:16;;;;;;;5.72;3.97;;;;;;;22.00;60.92;96548.88;6276000;22;20031;-77
2023/09/13 05:03:45;;;;;;;6.03;3.97;;;;;;;21.94;60.98;96547.25;6275544;22;20027;-77
2023/09/13 05:06:15;;;;;;;4.57;3.80;;;;;;;21.89;61.46;96549.88;6275940;22;20046;-77
2023/09/13 05:08:43;;;;;;;8.98;4.38;;;;;;;21.84;61.60;96552.47;6276191;22;20020;-78
2023/09/13 05:11:10;;;;;;;48.50;30.92;;;;;;;21.81;62.06;96548.47;6282361;22;20016;-77
2023/09/13 05:13:40;;;;;;;31.38;21.88;;;;;;;21.84;62.00;96557.78;6302281;22;20023;-77
2023/09/13 05:16:07;;;;;;;16.42;10.38;;;;;;;21.84;62.12;96555.13;6301556;22;20019;-78
2023/09/13 05:18:35;;;;;;;7.05;4.53;;;;;;;21.79;61.61;96558.56;6278238;22;20054;-78
2023/09/13 05:21:03;;;;;;;7.25;4.35;;;;;;;21.73;61.83;96555.06;6279865;22;20043;-78
2023/09/13 05:23:30;;;;;;;6.28;4.40;;;;;;;21.72;62.13;96555.31;6278999;22;20457;-78
2023/09/13 05:25:58;;;;;;;6.65;4.40;;;;;;;21.70;62.29;96552.91;6282048;22;20028;-79
2023/09/13 05:28:26;;;;;;;6.18;4.68;;;;;;;21.74;62.68;96567.28;6276266;22;20284;-78
2023/09/13 05:30:55;;;;;;;4.68;3.70;;;;;;;21.77;63.08;96580.03;6276402;22;20045;-79
2023/09/13 05:33:23;;;;;;;4.75;4.35;;;;;;;21.80;62.53;96587.53;6275753;22;20077;-78
2023/09/13 05:35:51;;;;;;;4.72;4.03;;;;;;;21.81;62.44;96581.13;6279515;22;20461;-79
2023/09/13 05:38:19;;;;;;;6.35;4.65;;;;;;;21.83;62.78;96582.75;6277678;22;20019;-78
2023/09/13 05:40:46;;;;;;;5.40;4.65;;;;;;;21.83;62.89;96585.41;6279251;22;20055;-79
2023/09/13 05:43:14;;;;;;;5.30;4.80;;;;;;;21.81;62.92;96589.09;6277609;22;20047;-79
2023/09/13 05:45:41;;;;;;;5.90;4.90;;;;;;;21.81;63.18;96596.28;6277407;22;20019;-78
2023/09/13 05:48:11;;;;;;;5.78;4.38;;;;;;;21.76;63.07;96596.25;6277543;22;20020;-79
2023/09/13 05:50:38;;;;;;;5.43;4.47;;;;;;;21.68;62.79;96589.53;6276687;22;20042;-79
2023/09/13 05:53:06;;;;;;;5.95;4.28;;;;;;;21.63;62.64;96594.81;6278236;22;20530;-78
2023/09/13 05:55:34;;;;;;;5.32;4.10;;;;;;;21.55;62.73;96592.59;6277153;22;20461;-80
2023/09/13 05:58:01;;;;;;;4.28;3.70;;;;;;;21.52;63.21;96603.75;6278352;22;20024;-79
2023/09/13 06:00:29;;;;;;;3.85;3.50;;;;;;;21.49;62.96;96604.22;6277738;22;20469;-79
2023/09/13 06:02:57;;;;;;;4.40;3.78;;;;;;;21.47;62.96;96601.00;6277748;22;20024;-79
2023/09/13 06:05:27;;;;;;;7.13;4.20;;;;;;;21.45;63.28;96600.47;6277195;22;20019;-80
2023/09/13 06:07:55;;;;;;;4.35;3.85;;;;;;;21.46;63.65;96599.44;6283252;22;20019;-80
2023/09/13 06:10:23;;;;;;;4.55;4.15;;;;;;;21.51;63.25;96610.06;6286715;22;20058;-80
2023/09/13 06:12:52;;;;;;;8.18;4.00;;;;;;;21.58;63.37;96610.66;6297518;22;20054;-80
2023/09/13 06:15:20;;;;;;;9.43;4.15;;;;;;;21.63;63.33;96621.34;6297949;22;20023;-80
2023/09/13 06:17:56;;;;;;;5.70;4.05;;;;;;;21.70;62.94;96623.81;6295574;22;20027;-80
2023/09/13 06:20:39;;;;;;;5.97;3.30;;;;;;;21.74;62.45;96628.34;6280723;22;20357;-80
2023/09/13 06:23:07;;;;;;;4.43;3.55;;;;;;;21.74;62.23;96620.38;6287732;22;20016;-80
2023/09/13 06:25:34;;;;;;;3.85;3.50;;;;;;;21.75;62.62;96632.59;6283853;22;20081;-80
2023/09/13 06:28:02;;;;;;;5.63;3.20;;;;;;;21.74;62.57;96620.38;6284691;22;20404;-80
2023/09/13 06:30:30;;;;;;;4.82;3.20;;;;;;;21.76;62.72;96625.44;6287984;22;20353;-80
2023/09/13 06:32:58;;;;;;;4.78;3.10;;;;;;;21.75;62.26;96616.66;6292164;22;20090;-80
2023/09/13 06:35:41;;;;;;;5.78;3.47;;;;;;;21.78;62.14;96634.75;6294943;22;20023;-80
2023/09/13 06:38:10;;;;;;;4.72;3.70;;;;;;;21.80;62.22;96632.66;6288712;22;20023;-80
2023/09/13 06:40:43;;;;;;;3.25;2.97;;;;;;;21.84;62.54;96637.44;6298278;22;20028;-79
2023/09/13 06:43:12;;;;;;;5.07;3.15;;;;;;;21.79;62.46;96631.03;6297254;22;20020;-79
2023/09/13 06:46:00;;;;;;;3.17;2.97;;;;;;;21.78;62.33;96633.97;6288513;22;20026;-79
2023/09/13 06:48:33;;;;;;;5.72;3.47;;;;;;;21.72;62.23;96629.66;6281402;22;20047;-79
2023/09/13 06:51:05;;;;;;;4.03;3.60;;;;;;;21.70;62.45;96631.75;6282954;22;20016;-77
2023/09/13 06:53:36;;;;;;;6.70;3.78;;;;;;;21.69;62.60;96636.28;6291928;22;20051;-79
2023/09/13 06:56:04;;;;;;;9.80;4.13;;;;;;;21.72;62.91;96630.44;6278710;22;20410;-80
2023/09/13 06:58:37;;;;;;;6.03;3.83;;;;;;;21.75;63.14;96640.56;6275835;22;20050;-78
2023/09/13 07:01:09;;;;;;;5.97;3.33;;;;;;;21.77;63.30;96642.97;6274566;22;20098;-79
2023/09/13 07:03:39;;;;;;;4.70;4.25;;;;;;;21.81;62.86;96644.88;6265624;22;20054;-78
2023/09/13 07:06:14;;;;;;;7.03;3.63;;;;;;;21.92;62.61;96650.28;6273432;22;20019;-79
2023/09/13 07:08:42;;;;;;;4.75;4.20;;;;;;;21.97;62.61;96659.09;6275095;22;20016;-78
2023/09/13 07:11:10;;;;;;;5.00;3.70;;;;;;;22.02;62.34;96645.06;6275436;22;20047;-77
2023/09/13 07:13:38;;;;;;;5.60;3.78;;;;;;;22.06;62.38;96651.44;6275628;22;20023;-79
2023/09/13 07:16:05;;;;;;;4.40;3.72;;;;;;;22.09;62.34;96644.84;6275680;22;20016;-79
2023/09/13 07:18:33;;;;;;;3.67;3.38;;;;;;;22.11;62.69;96648.84;6274909;22;20402;-80
2023/09/13 07:21:01;;;;;;;3.95;3.65;;;;;;;22.13;62.42;96651.25;6274038;22;20026;-77
2023/09/13 07:23:30;;;;;;;4.00;3.63;;;;;;;22.12;62.40;96661.06;6276373;22;20019;-78
2023/09/13 07:25:57;;;;;;;4.28;3.47;;;;;;;22.11;62.55;96654.16;6276924;22;20031;-78
2023/09/13 07:28:25;;;;;;;4.28;3.50;;;;;;;22.11;62.25;96658.66;6276851;22;20511;-78
2023/09/13 07:30:53;;;;;;;4.15;3.30;;;;;;;22.13;62.17;96660.00;6275989;22;20051;-78
2023/09/13 07:33:21;;;;;;;4.18;3.50;;;;;;;22.16;62.28;96659.50;6277368;22;20023;-78
2023/09/13 07:35:49;;;;;;;4.20;3.08;;;;;;;22.20;61.75;96670.44;6276472;22;20023;-79
2023/09/13 07:38:17;;;;;;;4.38;2.97;;;;;;;22.18;61.54;96673.31;6276809;22;20376;-78
2023/09/13 07:40:47;;;;;;;4.05;3.22;;;;;;;22.16;61.90;96666.66;6276888;22;20024;-81
2023/09/13 07:43:18;;;;;;;5.25;3.15;;;;;;;22.13;61.81;96672.50;6276540;22;20073;-79
2023/09/13 07:45:47;;;;;;;3.38;3.08;;;;;;;22.04;61.94;96674.81;6277556;22;20454;-78
2023/09/13 07:48:14;;;;;;;3.70;3.25;;;;;;;22.01;61.95;96680.63;6276138;22;20020;-80
2023/09/13 07:50:42;;;;;;;4.40;3.13;;;;;;;22.00;61.99;96681.69;6277165;22;20015;-77
2023/09/13 07:53:11;;;;;;;2.97;2.75;;;;;;;22.01;62.04;96688.59;6276551;22;20512;-78
2023/09/13 07:55:39;;;;;;;5.30;2.97;;;;;;;22.02;62.29;96688.34;6294055;22;20003;-78
2023/09/13 07:58:09;;;;;;;6.85;2.95;;;;;;;22.04;61.95;96684.63;6302158;22;20031;-79
2023/09/13 08:00:36;;;;;;;3.92;2.47;;;;;;;22.06;62.09;96682.53;6302349;22;20033;-78
2023/09/13 08:03:04;;;;;;;3.63;2.72;;;;;;;22.04;61.99;96681.97;6291892;22;20050;-78
2023/09/13 08:05:32;;;;;;;3.03;2.40;;;;;;;22.01;62.54;96689.38;6301621;22;20030;-79
2023/09/13 08:08:00;;;;;;;2.63;2.20;;;;;;;22.01;62.04;96680.63;6301626;22;20080;-78
2023/09/13 08:10:28;;;;;;;2.85;2.08;;;;;;;22.00;62.25;96684.34;6280546;22;20039;-78
2023/09/13 08:12:55;;;;;;;3.97;2.28;;;;;;;21.95;61.79;96678.97;6276989;22;20114;-76
2023/09/13 08:15:24;;;;;;;19.60;4.55;;;;;;;21.91;61.97;96688.50;6276859;22;20457;-75
2023/09/13 08:18:12;;;;;;;4.68;2.65;;;;;;;21.90;62.20;96694.88;6276550;22;20500;-75
2023/09/13 08:20:40;;;;;;;3.40;2.42;;;;;;;21.88;62.61;96696.97;6277056;22;20043;-76
2023/09/13 08:23:07;;;;;;;3.97;2.40;;;;;;;21.88;62.88;96702.28;6276350;22;20030;-78
2023/09/13 08:25:35;;;;;;;4.70;2.00;;;;;;;21.85;62.48;96706.25;6275625;22;20026;-78
2023/09/13 08:28:03;;;;;;;3.58;2.60;;;;;;;21.82;62.44;96701.41;6276558;22;20026;-78
2023/09/13 08:30:32;;;;;;;4.18;2.15;;;;;;;21.77;63.07;96718.09;6277196;22;20051;-78
2023/09/13 08:33:00;;;;;;;2.30;2.10;;;;;;;21.74;62.66;96718.63;6276244;22;20023;-77
2023/09/13 08:35:28;;;;;;;2.10;1.88;;;;;;;21.71;62.66;96713.81;6276747;22;20019;-78
2023/09/13 08:37:56;;;;;;;2.67;2.33;;;;;;;21.70;62.87;96717.50;6276881;22;20081;-77
2023/09/13 08:40:24;;;;;;;3.75;2.17;;;;;;;21.69;62.90;96726.53;6277220;22;20095;-78
2023/09/13 08:42:53;;;;;;;4.22;2.70;;;;;;;21.69;63.54;96733.69;6276593;22;20024;-77
2023/09/13 08:45:22;;;;;;;2.47;2.28;;;;;;;21.68;62.99;96740.06;6276630;22;20024;-77
2023/09/13 08:48:22;;;;;;;3.95;2.30;;;;;;;21.68;63.51;96738.19;6277533;22;20038;-80
2023/09/13 08:53:39;;;;;;;3.17;2.25;;;;;;;21.68;62.85;96743.50;6333478;22;20064;-80
2023/09/13 08:56:09;;;;;;;2.28;2.08;;;;;;;21.69;63.14;96747.78;6335669;22;20010;-80
2023/09/13 08:58:39;;;;;;;2.17;1.98;;;;;;;21.67;62.62;96749.88;6324047;22;20004;-80
2023/09/13 09:01:12;;;;;;;2.45;2.25;;;;;;;21.67;63.11;96755.19;6302240;22;20027;-80
2023/09/13 09:04:03;;;;;;;4.03;1.70;;;;;;;21.70;62.79;96759.19;6302172;22;20076;-79
2023/09/13 09:06:36;;;;;;;3.47;2.17;;;;;;;21.73;62.29;96758.69;6279035;22;20031;-80
2023/09/13 09:09:07;;;;;;;2.40;2.20;;;;;;;21.70;62.21;96760.00;6302342;22;20004;-80
2023/09/13 09:11:41;;;;;;;2.72;2.53;;;;;;;21.70;62.09;96769.81;6303817;22;20368;-79
2023/09/13 09:14:15;;;;;;;3.15;2.30;;;;;;;21.66;61.96;96769.50;6302210;22;20024;-80
2023/09/13 09:26:03;;;;;;;2.95;2.10;;;;;;;21.56;62.13;96769.41;6271942;22;20043;-79
2023/09/13 09:28:34;;;;;;;3.08;2.22;;;;;;;21.55;62.55;96770.44;6268973;23;20023;-79
2023/09/13 09:31:07;;;;;;;2.50;2.30;;;;;;;21.54;62.58;96763.53;6271093;22;20027;-77
2023/09/13 09:36:50;;;;;;;2.80;2.60;;;;;;;21.52;62.96;96774.38;6301695;22;20028;-82
2023/09/13 09:40:00;;;;;;;2.90;2.60;;;;;;;21.51;63.35;96771.97;6294598;22;20027;-80
2023/09/13 09:45:43;;;;;;;3.45;2.47;;;;;;;21.53;62.88;96772.53;6283338;22;20061;-80
2023/09/13 09:48:16;;;;;;;3.97;3.08;;;;;;;21.53;62.74;96775.97;6304262;22;20037;-79
2023/09/13 09:50:51;;;;;;;3.08;2.83;;;;;;;21.53;62.41;96765.38;6301103;22;20030;-79
2023/09/13 10:04:26;;;;;;;3.28;3.03;;;;;;;21.58;63.04;96773.41;6281078;22;20025;-80
2023/09/13 10:07:07;;;;;;;4.45;3.10;;;;;;;21.60;63.29;96770.47;6276936;22;20429;-78
2023/09/13 10:09:55;;;;;;;5.90;3.30;;;;;;;21.64;62.93;96768.94;6276663;22;20505;-79
2023/09/13 10:12:26;;;;;;;2.92;2.72;;;;;;;21.68;63.17;96770.06;6276337;22;20012;-77
2023/09/13 10:15:05;;;;;;;5.13;3.00;;;;;;;21.71;64.35;96772.22;6276235;22;20020;-80
2023/09/13 10:17:33;;;;;;;3.22;2.58;;;;;;;21.74;63.98;96766.41;6276692;22;20019;-78
2023/09/13 10:20:03;;;;;;;3.90;2.58;;;;;;;21.75;63.43;96768.00;6278067;22;20020;-78
2023/09/13 10:22:33;;;;;;;3.53;2.25;;;;;;;21.79;62.91;96768.31;6276950;22;20453;-78
2023/09/13 10:25:04;;;;;;;4.28;3.47;;;;;;;21.83;62.51;96780.03;6277196;22;20334;-78
2023/09/13 10:27:35;;;;;;;3.40;3.10;;;;;;;21.84;63.10;96780.84;6277643;22;20024;-78
2023/09/13 10:30:04;;;;;;;3.53;3.22;;;;;;;21.84;62.56;96775.53;6276958;22;20091;-78
2023/09/13 10:32:39;;;;;;;2.60;2.40;;;;;;;21.87;62.08;96780.38;6276499;22;20074;-78
2023/09/13 10:35:11;;;;;;;2.17;1.98;;;;;;;21.85;61.58;96777.94;6276746;22;20020;-77
2023/09/13 10:37:48;;;;;;;3.10;2.80;;;;;;;21.84;61.09;96773.66;6276426;22;20488;-77
2023/09/13 10:40:20;;;;;;;8.10;5.32;;;;;;;21.84;61.39;96772.88;6276814;22;20353;-78
2023/09/13 10:42:48;;;;;;;;;;;;;;;21.85;61.51;96764.66;6276859;22;20106;-77
2023/09/13 10:45:18;;;;;;;4.35;3.95;;;;;;;21.87;61.82;96769.75;6278451;22;19986;-77
2023/09/13 10:47:47;;;;;;;3.95;3.60;;;;;;;21.88;62.17;96772.13;6277238;22;20024;-76
2023/09/13 10:50:18;;;;;;;4.50;2.90;;;;;;;21.90;62.12;96758.59;6278433;22;20055;-76
2023/09/13 10:52:49;;;;;;;2.80;2.60;;;;;;;21.94;62.09;96765.81;6276730;22;20026;-76
2023/09/13 10:55:17;;;;;;;3.75;2.53;;;;;;;21.98;61.90;96769.59;6277786;22;20026;-77
2023/09/13 10:57:46;;;;;;;2.92;2.67;;;;;;;22.02;63.16;96769.91;6276356;22;20412;-77
2023/09/13 11:00:15;;;;;;;2.85;2.65;;;;;;;22.02;61.80;96767.25;6276730;22;20020;-77
2023/09/13 11:02:45;;;;;;;4.57;3.50;;;;;;;22.00;62.40;96769.34;6275358;22;20023;-77
2023/09/13 11:05:16;;;;;;;3.90;3.20;;;;;;;21.97;61.47;96769.81;6275938;22;20073;-77
2023/09/13 11:07:46;;;;;;;5.22;4.72;;;;;;;21.95;62.46;96771.94;6276038;22;20396;-77
2023/09/13 11:10:16;;;;;;;4.47;4.10;;;;;;;21.95;61.80;96766.63;6275814;22;20027;-77
2023/09/13 11:12:48;;;;;;;5.60;5.10;;;;;;;21.93;61.80;96774.84;6275297;22;20024;-77
2023/09/13 11:15:21;;;;;;;5.28;4.78;;;;;;;21.92;61.59;96775.09;6276879;22;20026;-77
2023/09/13 11:17:49;;;;;;;4.32;3.92;;;;;;;21.91;61.63;96776.13;6276800;22;20380;-77
2023/09/13 11:20:27;;;;;;;3.95;3.47;;;;;;;21.93;61.74;96776.69;6276176;22;20012;-77
2023/09/13 11:23:05;;;;;;;7.82;5.63;;;;;;;21.96;61.85;96776.19;6276725;22;20095;-77
2023/09/13 11:25:36;;;;;;;6.90;4.90;;;;;;;21.95;62.27;96777.25;6277107;22;20074;-77
2023/09/13 11:28:29;;;;;;;3.78;3.28;;;;;;;21.97;61.68;96775.13;6276230;22;20024;-77
2023/09/13 11:30:59;;;;;;;3.38;2.75;;;;;;;21.99;61.71;96776.47;6275855;22;20024;-78
2023/09/13 11:33:28;;;;;;;8.43;6.00;;;;;;;22.01;62.38;96776.25;6276000;22;20023;-77
2023/09/13 11:35:58;;;;;;;7.28;5.22;;;;;;;22.02;62.24;96772.56;6275963;22;20023;-77
2023/09/13 11:38:26;;;;;;;5.35;3.78;;;;;;;22.05;62.77;96771.25;6276188;22;20058;-76
2023/09/13 11:40:56;;;;;;;3.70;2.65;;;;;;;22.07;61.85;96775.25;6276148;22;20093;-77
2023/09/13 11:43:25;;;;;;;2.55;2.35;;;;;;;22.13;60.88;96770.81;6275843;22;20015;-77
2023/09/13 11:46:01;;;;;;;4.03;2.72;;;;;;;22.18;61.80;96763.66;6275992;22;20026;-77
2023/09/13 11:48:39;;;;;;;2.72;2.50;;;;;;;22.23;61.06;96767.44;6275961;22;20019;-77
2023/09/13 11:51:26;;;;;;;3.35;2.90;;;;;;;22.29;62.14;96766.44;6275899;22;20020;-77
2023/09/13 11:54:15;;;;;;;2.80;2.50;;;;;;;22.37;61.07;96764.13;6275077;22;20016;-77
2023/09/13 11:56:44;;;;;;;4.15;2.63;;;;;;;22.48;61.33;96759.72;6275529;22;20020;-77
2023/09/13 11:59:16;;;;;;;4.55;3.60;;;;;;;22.59;60.06;96768.56;6276214;22;20030;-78
2023/09/13 12:01:49;;;;;;;4.88;3.78;;;;;;;22.65;60.11;96769.38;6276021;22;20522;-78
2023/09/13 12:04:25;;;;;;;5.38;3.22;;;;;;;22.68;59.34;96760.91;6275576;22;20043;-77
2023/09/13 12:06:57;;;;;;;3.22;2.92;;;;;;;22.74;59.38;96767.84;6287314;22;20055;-79
2023/09/13 12:09:29;;;;;;;3.45;2.67;;;;;;;22.80;59.93;96772.16;6275650;22;20534;-79
2023/09/13 12:12:00;;;;;;;3.60;2.78;;;;;;;22.82;60.73;96756.75;6276122;22;20023;-78
2023/09/13 12:14:33;;;;;;;3.20;2.90;;;;;;;22.84;59.14;96767.94;6275813;22;20078;-78
2023/09/13 12:17:04;;;;;;;2.75;2.47;;;;;;;22.85;59.81;96769.53;6276993;22;20047;-78